Time;durP1;ratioP1;P1;durP2;ratioP2;P2;SDS_P1;SDS_P2;PMS_P1;PMS_P2;Temp;Humidity;BMP_temperature;BMP_pressure;BME280_temperature;BME280_humidity;BME280_pressure;Samples;Min_cycle;Max_cycle;Signal;HPM_P1;HPM_P2
2022/11/10 00:01:08;;;;;;;21.08;15.68;;;10.40;99.90;;;;;;2056559;28;20042;-75
2022/11/10 00:02:27;;;;;;;23.00;15.65;;;10.40;99.90;;;;;;2056420;28;20038;-76
2022/11/10 00:03:48;;;;;;;20.48;15.00;;;10.40;99.90;;;;;;2056189;28;20113;-75
2022/11/10 00:05:07;;;;;;;20.48;15.25;;;10.40;99.90;;;;;;2056380;28;20121;-77
2022/11/10 00:06:26;;;;;;;20.05;15.10;;;10.40;99.90;;;;;;2056714;28;20385;-75
2022/11/10 00:07:45;;;;;;;21.70;15.55;;;10.40;99.90;;;;;;2056614;28;20129;-76
2022/11/10 00:09:05;;;;;;;21.63;15.60;;;10.40;99.90;;;;;;2056551;28;20648;-76
2022/11/10 00:10:24;;;;;;;21.95;15.52;;;10.40;99.90;;;;;;2056586;28;20023;-76
2022/11/10 00:11:44;;;;;;;22.45;15.75;;;10.40;99.90;;;;;;2056738;28;20031;-76
2022/11/10 00:13:03;;;;;;;20.60;15.23;;;10.40;99.90;;;;;;2056481;28;20113;-76
2022/11/10 00:17:43;;;;;;;29.50;18.30;;;10.40;99.90;;;;;;2055973;28;20031;-74
2022/11/10 00:19:02;;;;;;;30.80;18.75;;;10.40;99.90;;;;;;2056390;28;20038;-75
2022/11/10 00:20:21;;;;;;;30.08;18.23;;;10.40;99.90;;;;;;2056267;28;20035;-75
2022/11/10 00:21:40;;;;;;;30.00;19.30;;;10.30;99.90;;;;;;2055414;28;20600;-76
2022/11/10 00:22:59;;;;;;;29.88;19.20;;;10.30;99.90;;;;;;2055906;28;20031;-76
2022/11/10 00:24:18;;;;;;;28.63;18.50;;;10.30;99.90;;;;;;2055675;28;20070;-76
2022/11/10 00:25:37;;;;;;;29.08;18.25;;;10.30;99.90;;;;;;2056003;28;20070;-76
2022/11/10 00:26:56;;;;;;;26.50;17.52;;;10.30;99.90;;;;;;2056019;28;20030;-76
2022/11/10 00:28:16;;;;;;;26.63;17.05;;;10.30;99.90;;;;;;2055895;28;20039;-76
2022/11/10 00:29:35;;;;;;;28.08;17.60;;;10.30;99.90;;;;;;2055933;28;20030;-77
2022/11/10 00:30:54;;;;;;;27.30;17.55;;;10.30;99.90;;;;;;2055270;28;20038;-77
2022/11/10 00:32:13;;;;;;;28.05;17.95;;;10.30;99.90;;;;;;2056211;28;20039;-77
2022/11/10 00:33:37;;;;;;;27.25;17.63;;;10.30;99.90;;;;;;2056508;28;20078;-77
2022/11/10 00:34:57;;;;;;;27.30;17.88;;;10.30;99.90;;;;;;2056483;28;20022;-77
2022/11/10 00:36:16;;;;;;;27.30;17.40;;;10.30;99.90;;;;;;2055993;28;20043;-77
2022/11/10 00:37:34;;;;;;;25.63;16.77;;;10.30;99.90;;;;;;2055858;28;20365;-76
2022/11/10 00:38:53;;;;;;;24.80;16.30;;;10.30;99.90;;;;;;2055743;28;20031;-75
2022/11/10 00:40:13;;;;;;;22.48;15.18;;;10.30;99.90;;;;;;2055610;28;20038;-75
2022/11/10 00:41:32;;;;;;;21.27;14.70;;;10.30;99.90;;;;;;2055773;28;20054;-76
2022/11/10 00:42:51;;;;;;;20.73;14.45;;;10.30;99.90;;;;;;2055849;28;20618;-76
2022/11/10 00:44:11;;;;;;;21.63;14.63;;;10.30;99.90;;;;;;2055162;28;20043;-75
2022/11/10 00:45:29;;;;;;;20.45;14.10;;;10.20;99.90;;;;;;2055777;28;20425;-76
2022/11/10 00:46:49;;;;;;;20.25;13.60;;;10.20;99.90;;;;;;2055758;28;20064;-76
2022/11/10 00:48:08;;;;;;;19.15;13.48;;;10.20;99.90;;;;;;2061960;28;20046;-77
2022/11/10 00:49:27;;;;;;;19.67;13.10;;;10.20;99.90;;;;;;2063369;28;20171;-77
2022/11/10 00:50:46;;;;;;;18.42;12.73;;;10.20;99.90;;;;;;2063987;28;20035;-77
2022/11/10 00:52:06;;;;;;;16.75;12.68;;;10.20;99.90;;;;;;2063570;28;20027;-77
2022/11/10 00:53:25;;;;;;;18.70;12.30;;;10.20;99.90;;;;;;2059083;28;20718;-77
2022/11/10 00:54:44;;;;;;;19.15;12.70;;;10.10;99.90;;;;;;2060936;28;20035;-77
2022/11/10 00:56:03;;;;;;;16.92;12.27;;;10.10;99.90;;;;;;2062513;28;20042;-76
2022/11/10 00:57:22;;;;;;;16.02;11.65;;;10.10;99.90;;;;;;2063014;28;20050;-77
2022/11/10 00:58:41;;;;;;;17.50;12.05;;;10.10;99.90;;;;;;2063178;28;20473;-77
2022/11/10 01:00:01;;;;;;;16.50;12.15;;;10.10;99.90;;;;;;2057607;28;20030;-78
2022/11/10 01:01:25;;;;;;;16.10;11.68;;;10.00;99.90;;;;;;2056262;28;20090;-77
2022/11/10 01:02:44;;;;;;;16.73;11.75;;;10.00;99.90;;;;;;2056166;28;20062;-77
2022/11/10 01:04:04;;;;;;;15.30;11.45;;;10.10;99.90;;;;;;2055536;28;20062;-77
2022/11/10 01:05:23;;;;;;;15.43;11.55;;;10.00;99.90;;;;;;2056251;28;20035;-78
2022/11/10 01:06:42;;;;;;;14.93;11.15;;;10.00;99.90;;;;;;2055857;28;20034;-77
2022/11/10 01:08:01;;;;;;;15.80;11.63;;;10.00;99.90;;;;;;2055253;28;20541;-77
2022/11/10 01:09:21;;;;;;;15.68;11.07;;;9.90;99.90;;;;;;2055704;28;20537;-77
2022/11/10 01:10:40;;;;;;;14.45;10.75;;;9.90;99.90;;;;;;2055778;28;20058;-78
2022/11/10 01:11:59;;;;;;;15.90;11.38;;;9.90;99.90;;;;;;2055715;28;20609;-77
2022/11/10 01:13:18;;;;;;;14.73;10.93;;;9.90;99.90;;;;;;2055787;28;20034;-76
2022/11/10 01:14:37;;;;;;;13.63;10.63;;;9.90;99.90;;;;;;2055495;28;20117;-76
2022/11/10 01:15:56;;;;;;;14.27;10.82;;;9.90;99.90;;;;;;2055749;28;20486;-77
2022/11/10 01:17:16;;;;;;;14.40;10.43;;;9.80;99.90;;;;;;2055719;28;20035;-77
2022/11/10 01:18:35;;;;;;;15.13;10.77;;;9.80;99.90;;;;;;2055589;28;20046;-77
2022/11/10 01:19:54;;;;;;;12.85;10.02;;;9.80;99.90;;;;;;2055813;28;20039;-77
2022/11/10 01:21:13;;;;;;;13.65;10.25;;;9.80;99.90;;;;;;2056005;28;20042;-77
2022/11/10 01:22:33;;;;;;;14.32;10.52;;;9.70;99.90;;;;;;2056558;28;20043;-75
2022/11/10 01:23:53;;;;;;;14.38;10.50;;;9.70;99.90;;;;;;2056254;28;20043;-77
2022/11/10 01:25:12;;;;;;;14.82;10.55;;;9.70;99.90;;;;;;2055859;28;20035;-77
2022/11/10 01:26:32;;;;;;;17.02;10.85;;;9.70;99.90;;;;;;2055906;28;20043;-77
2022/11/10 01:27:51;;;;;;;15.27;10.80;;;9.70;99.90;;;;;;2056167;28;20031;-75
2022/11/10 01:29:11;;;;;;;14.90;10.10;;;9.70;99.90;;;;;;2055994;28;20121;-76
2022/11/10 01:30:30;;;;;;;14.50;9.00;;;9.70;99.90;;;;;;2056113;28;20512;-76
2022/11/10 01:31:49;;;;;;;12.25;7.50;;;9.80;99.90;;;;;;2056502;28;20031;-76
2022/11/10 01:33:08;;;;;;;9.38;6.53;;;9.80;99.90;;;;;;2056565;28;20027;-75
2022/11/10 01:34:28;;;;;;;10.07;6.10;;;9.80;99.90;;;;;;2055554;28;20042;-75
2022/11/10 01:35:47;;;;;;;9.32;6.00;;;9.90;99.90;;;;;;2056150;28;20019;-75
2022/11/10 01:37:06;;;;;;;9.65;4.65;;;9.90;99.90;;;;;;2056540;28;20042;-75
2022/11/10 01:38:30;;;;;;;7.53;4.00;;;10.00;99.90;;;;;;2056460;28;20027;-75
2022/11/10 01:39:49;;;;;;;6.72;4.32;;;10.00;99.90;;;;;;2056406;28;20035;-75
2022/11/10 01:41:11;;;;;;;6.68;3.47;;;10.00;99.90;;;;;;2056486;28;20035;-76
2022/11/10 01:43:00;;;;;;;3.85;3.20;;;10.10;99.90;;;;;;2056362;28;20042;-76
2022/11/10 01:44:23;;;;;;;4.38;3.03;;;10.10;99.90;;;;;;2054199;28;20043;-76
2022/11/10 01:45:47;;;;;;;5.93;3.03;;;10.10;99.90;;;;;;2056045;28;20035;-75
2022/11/10 01:47:07;;;;;;;5.85;3.47;;;10.00;99.90;;;;;;2056282;28;20035;-78
2022/11/10 01:48:49;;;;;;;5.05;3.40;;;10.00;99.90;;;;;;2056479;28;20042;-77
2022/11/10 01:50:09;;;;;;;4.78;3.60;;;10.00;99.90;;;;;;2056135;28;20027;-77
2022/11/10 01:51:46;;;;;;;6.03;4.22;;;10.00;99.90;;;;;;2056474;28;20501;-75
2022/11/10 01:53:10;;;;;;;6.50;4.30;;;10.00;99.90;;;;;;2056210;28;20035;-75
2022/11/10 01:54:43;;;;;;;5.82;4.32;;;9.90;99.90;;;;;;2056251;28;20071;-75
2022/11/10 01:56:03;;;;;;;6.40;4.57;;;9.90;99.90;;;;;;2056402;28;20445;-75
2022/11/10 01:57:22;;;;;;;5.97;4.65;;;9.80;99.90;;;;;;2056344;28;20035;-75
2022/11/10 01:58:50;;;;;;;6.75;5.03;;;9.80;99.90;;;;;;2056283;28;20847;-76
2022/11/10 02:00:09;;;;;;;7.28;5.10;;;9.80;99.90;;;;;;2056239;28;20035;-75
2022/11/10 02:01:29;;;;;;;6.07;4.90;;;9.80;99.90;;;;;;2056359;28;20058;-76
2022/11/10 02:02:55;;;;;;;7.75;5.45;;;9.70;99.90;;;;;;2055692;28;20074;-75
2022/11/10 02:04:19;;;;;;;7.43;4.88;;;9.70;99.90;;;;;;2055570;28;20054;-75
2022/11/10 02:05:38;;;;;;;7.72;5.13;;;9.60;99.90;;;;;;2056297;28;20046;-75
2022/11/10 02:06:58;;;;;;;6.15;4.93;;;9.60;99.90;;;;;;2055846;28;20489;-75
2022/11/10 02:08:18;;;;;;;6.82;5.32;;;9.60;99.90;;;;;;2056055;28;20409;-77
2022/11/10 02:09:37;;;;;;;6.25;4.82;;;9.60;99.90;;;;;;2055646;28;20031;-76
2022/11/10 02:10:56;;;;;;;7.20;5.32;;;9.50;99.90;;;;;;2056048;28;20039;-76
2022/11/10 02:12:35;;;;;;;7.95;5.00;;;9.50;99.90;;;;;;2050003;28;20031;-77
2022/11/10 02:13:55;;;;;;;10.13;4.70;;;9.60;99.90;;;;;;2047807;29;20039;-75
2022/11/10 02:15:16;;;;;;;5.20;4.20;;;9.60;99.90;;;;;;2048262;29;20083;-77
2022/11/10 02:16:35;;;;;;;5.93;3.53;;;9.60;99.90;;;;;;2048133;29;20506;-76
2022/11/10 02:17:55;;;;;;;8.07;3.58;;;9.60;99.90;;;;;;2048081;29;20035;-76
2022/11/10 02:19:16;;;;;;;6.78;3.20;;;9.70;99.90;;;;;;2048069;29;20083;-77
2022/11/10 02:20:35;;;;;;;7.65;3.33;;;9.80;99.90;;;;;;2047837;29;20434;-75
2022/11/10 02:21:54;;;;;;;6.72;3.20;;;9.90;99.90;;;;;;2047925;29;20068;-76
2022/11/10 02:23:28;;;;;;;5.10;3.00;;;9.90;99.90;;;;;;2048144;29;20027;-77
2022/11/10 02:24:48;;;;;;;5.25;3.00;;;10.00;99.90;;;;;;2048090;29;20051;-76
2022/11/10 02:26:07;;;;;;;4.93;2.78;;;10.00;99.90;;;;;;2048478;29;20027;-77
2022/11/10 02:27:26;;;;;;;7.60;2.88;;;10.10;99.90;;;;;;2048252;29;20110;-77
2022/11/10 02:28:45;;;;;;;4.55;2.78;;;10.10;99.90;;;;;;2048273;29;20629;-76
2022/11/10 02:30:05;;;;;;;4.47;2.63;;;10.10;99.90;;;;;;2048428;29;20529;-76
2022/11/10 02:31:27;;;;;;;6.28;2.92;;;10.10;99.90;;;;;;2048225;29;20410;-76
2022/11/10 02:32:46;;;;;;;3.70;2.58;;;10.10;99.90;;;;;;2048281;29;20039;-76
2022/11/10 02:34:05;;;;;;;4.80;2.40;;;10.10;99.90;;;;;;2047771;29;20042;-76
2022/11/10 02:35:25;;;;;;;6.65;2.67;;;10.10;99.90;;;;;;2048221;29;20472;-75
2022/11/10 02:36:44;;;;;;;4.40;2.42;;;10.00;99.90;;;;;;2048003;29;20494;-75
2022/11/10 02:38:03;;;;;;;2.80;2.20;;;10.00;99.90;;;;;;2048146;29;20039;-75
2022/11/10 02:39:22;;;;;;;4.13;2.50;;;10.00;99.90;;;;;;2047772;29;20046;-76
2022/11/10 02:40:41;;;;;;;4.43;2.50;;;9.90;99.90;;;;;;2048124;28;20486;-75
2022/11/10 02:42:01;;;;;;;6.13;2.90;;;9.90;99.90;;;;;;2049463;29;20043;-76
2022/11/10 02:43:20;;;;;;;5.30;2.85;;;9.90;99.90;;;;;;2049521;29;20031;-76
2022/11/10 02:44:40;;;;;;;4.85;3.40;;;9.90;99.90;;;;;;2048818;29;20043;-76
2022/11/10 02:45:59;;;;;;;5.70;3.33;;;9.80;99.90;;;;;;2049130;29;20031;-75
2022/11/10 02:47:18;;;;;;;6.50;3.85;;;9.80;99.90;;;;;;2049567;29;20039;-75
2022/11/10 02:48:37;;;;;;;5.10;3.85;;;9.90;99.90;;;;;;2049367;29;20039;-75
2022/11/10 02:49:57;;;;;;;5.20;3.50;;;9.90;99.90;;;;;;2049483;29;20039;-76
2022/11/10 02:51:16;;;;;;;5.82;3.50;;;9.80;99.90;;;;;;2049781;29;20028;-76
2022/11/10 02:52:36;;;;;;;5.88;3.22;;;9.80;99.90;;;;;;2049601;29;20047;-76
2022/11/10 02:53:55;;;;;;;6.50;3.53;;;9.80;99.90;;;;;;2049208;29;20027;-76
2022/11/10 02:55:14;;;;;;;3.63;2.78;;;9.70;99.90;;;;;;2049303;29;20125;-76
2022/11/10 02:56:34;;;;;;;5.22;3.45;;;9.70;99.90;;;;;;2049052;29;20035;-76
2022/11/10 02:57:53;;;;;;;6.60;3.00;;;9.70;99.90;;;;;;2049102;29;20694;-76
2022/11/10 02:59:13;;;;;;;5.47;3.10;;;9.70;99.90;;;;;;2048213;29;20057;-76
2022/11/10 03:00:32;;;;;;;4.22;3.15;;;9.70;99.90;;;;;;2048188;29;20047;-76
2022/11/10 03:01:51;;;;;;;4.75;3.25;;;9.70;99.90;;;;;;2048483;29;20043;-77
2022/11/10 03:03:10;;;;;;;5.60;3.28;;;9.70;99.90;;;;;;2048647;29;20031;-76
2022/11/10 03:04:30;;;;;;;4.53;3.03;;;9.70;99.90;;;;;;2048342;29;20039;-76
2022/11/10 03:05:49;;;;;;;4.65;2.90;;;9.70;99.90;;;;;;2048225;29;20027;-76
2022/11/10 03:07:08;;;;;;;5.10;2.92;;;9.60;99.90;;;;;;2048257;29;20149;-76
2022/11/10 03:08:28;;;;;;;4.35;2.75;;;9.60;99.90;;;;;;2048135;29;20114;-76
2022/11/10 03:09:47;;;;;;;4.53;2.90;;;9.60;99.90;;;;;;2048387;29;20076;-75
2022/11/10 03:11:06;;;;;;;3.40;2.80;;;9.50;99.90;;;;;;2048452;29;20027;-76
2022/11/10 03:12:25;;;;;;;3.47;2.75;;;9.50;99.90;;;;;;2048472;29;20461;-76
2022/11/10 03:13:44;;;;;;;3.65;2.65;;;9.40;99.90;;;;;;2048243;29;20042;-76
2022/11/10 03:15:03;;;;;;;3.00;2.70;;;9.40;99.90;;;;;;2048477;29;20047;-76
2022/11/10 03:16:22;;;;;;;4.45;2.92;;;9.30;99.90;;;;;;2048673;29;20031;-77
2022/11/10 03:17:41;;;;;;;3.38;2.78;;;9.30;99.90;;;;;;2048725;29;20474;-75
2022/11/10 03:19:01;;;;;;;4.70;2.92;;;9.20;99.90;;;;;;2048641;29;20035;-76
2022/11/10 03:20:20;;;;;;;5.50;3.13;;;9.30;99.90;;;;;;2048050;29;20039;-76
2022/11/10 03:21:40;;;;;;;4.35;2.90;;;9.20;99.90;;;;;;2048390;29;20762;-77
2022/11/10 03:23:01;;;;;;;6.88;3.70;;;9.20;99.90;;;;;;2048232;29;20490;-76
2022/11/10 03:24:20;;;;;;;7.05;4.07;;;9.20;99.90;;;;;;2047782;29;20039;-76
2022/11/10 03:25:40;;;;;;;6.03;4.10;;;9.10;99.90;;;;;;2048951;29;20402;-76
2022/11/10 03:26:59;;;;;;;6.38;4.38;;;9.10;99.90;;;;;;2049087;29;20043;-76
2022/11/10 03:28:18;;;;;;;8.43;5.05;;;9.10;99.90;;;;;;2049748;29;20023;-76
2022/11/10 03:29:38;;;;;;;8.07;4.88;;;9.10;99.90;;;;;;2049024;29;20071;-76
2022/11/10 03:30:57;;;;;;;6.90;5.00;;;9.00;99.90;;;;;;2049587;29;20122;-75
2022/11/10 03:32:16;;;;;;;10.57;5.40;;;9.00;99.90;;;;;;2049220;29;20461;-76
2022/11/10 03:33:35;;;;;;;9.02;5.28;;;9.00;99.90;;;;;;2049426;29;20565;-76
2022/11/10 03:34:54;;;;;;;7.50;5.20;;;8.90;99.90;;;;;;2048457;29;20047;-75
2022/11/10 03:36:13;;;;;;;7.95;4.80;;;8.90;99.90;;;;;;2049091;29;20051;-77
2022/11/10 03:37:32;;;;;;;7.13;4.53;;;8.90;99.90;;;;;;2053926;29;20047;-77
2022/11/10 03:38:51;;;;;;;6.93;4.72;;;8.80;99.90;;;;;;2051585;29;20023;-77
2022/11/10 03:40:11;;;;;;;7.10;4.60;;;8.80;99.90;;;;;;2053028;29;20051;-77
2022/11/10 03:41:30;;;;;;;8.98;5.03;;;8.80;99.90;;;;;;2052105;29;20058;-76
2022/11/10 03:42:49;;;;;;;13.38;6.50;;;8.80;99.90;;;;;;2052039;29;20035;-77
2022/11/10 03:44:08;;;;;;;14.15;6.85;;;8.80;99.90;;;;;;2050883;29;20035;-77
2022/11/10 03:45:28;;;;;;;16.65;7.45;;;8.80;99.90;;;;;;2051024;29;20043;-76
2022/11/10 03:46:47;;;;;;;16.35;7.95;;;8.70;99.90;;;;;;2050679;29;20047;-77
2022/11/10 03:48:07;;;;;;;16.42;7.88;;;8.70;99.90;;;;;;2049711;29;20039;-75
2022/11/10 03:49:26;;;;;;;19.30;9.07;;;8.70;99.90;;;;;;2049734;29;20027;-77
2022/11/10 03:50:45;;;;;;;29.25;11.90;;;8.60;99.90;;;;;;2048630;29;20043;-75
2022/11/10 03:52:04;;;;;;;25.98;10.63;;;8.70;99.90;;;;;;2048388;28;20039;-77
2022/11/10 03:53:23;;;;;;;18.95;8.18;;;8.70;99.90;;;;;;2048262;29;20417;-76
2022/11/10 03:54:43;;;;;;;24.63;10.27;;;8.80;99.90;;;;;;2049008;29;20561;-77
2022/11/10 03:56:03;;;;;;;23.00;10.07;;;8.80;99.90;;;;;;2049100;29;20402;-77
2022/11/10 03:57:23;;;;;;;;;;;8.80;99.90;;;;;;2048557;29;20122;-77
2022/11/10 03:58:42;;;;;;;24.63;10.25;;;8.70;99.90;;;;;;2048391;29;19911;-77
2022/11/10 04:00:02;;;;;;;21.27;9.80;;;8.70;99.90;;;;;;2048417;29;20062;-76
2022/11/10 04:01:22;;;;;;;18.23;8.88;;;8.70;99.90;;;;;;2048762;29;20027;-76
2022/11/10 04:02:41;;;;;;;19.90;9.38;;;8.70;99.90;;;;;;2048306;29;20112;-75
2022/11/10 04:04:01;;;;;;;21.30;8.98;;;8.70;99.90;;;;;;2048052;29;20063;-76
2022/11/10 04:10:14;;;;;;;23.35;10.43;;;8.60;99.90;;;;;;2048671;29;20031;-75
2022/11/10 04:16:28;;;;;;;10.45;5.25;;;8.60;99.90;;;;;;2048645;29;20043;-77
2022/11/10 04:17:50;;;;;;;10.68;5.15;;;8.70;99.90;;;;;;2048303;29;20074;-76
2022/11/10 04:19:09;;;;;;;7.97;4.90;;;8.70;99.90;;;;;;2048620;29;20075;-76
2022/11/10 04:20:29;;;;;;;10.57;5.35;;;8.70;99.90;;;;;;2048780;29;20829;-76
2022/11/10 04:21:48;;;;;;;10.07;4.80;;;8.70;99.90;;;;;;2048512;29;20035;-77
2022/11/10 04:23:26;;;;;;;7.35;3.97;;;8.70;99.90;;;;;;2047900;29;20035;-77
2022/11/10 04:24:45;;;;;;;7.07;3.65;;;8.80;99.90;;;;;;2048203;29;20102;-75
2022/11/10 04:27:45;;;;;;;4.47;3.30;;;8.80;99.90;;;;;;2048040;29;20527;-75
2022/11/10 04:29:07;;;;;;;7.38;3.30;;;8.90;99.90;;;;;;2047878;29;20027;-75
2022/11/10 04:30:27;;;;;;;5.38;2.95;;;8.90;99.90;;;;;;2048169;29;20027;-76
2022/11/10 04:31:46;;;;;;;5.97;3.38;;;8.90;99.90;;;;;;2047207;29;20126;-76
2022/11/10 04:33:05;;;;;;;7.10;3.42;;;8.90;99.90;;;;;;2047308;29;20028;-74
2022/11/10 04:34:24;;;;;;;8.30;3.30;;;8.90;99.90;;;;;;2047416;29;20039;-76
2022/11/10 04:35:43;;;;;;;7.18;3.70;;;8.90;99.90;;;;;;2047777;29;20031;-76
2022/11/10 04:37:03;;;;;;;6.20;3.17;;;9.00;99.90;;;;;;2047930;29;20126;-76
2022/11/10 04:38:22;;;;;;;7.85;3.30;;;9.00;99.90;;;;;;2047843;29;20078;-76
2022/11/10 04:39:41;;;;;;;6.45;3.22;;;9.00;99.90;;;;;;2047425;29;20027;-76
2022/11/10 04:41:01;;;;;;;6.28;3.17;;;9.10;99.90;;;;;;2047800;29;20035;-76
2022/11/10 04:42:20;;;;;;;4.70;3.00;;;9.10;99.90;;;;;;2047943;29;20043;-76
2022/11/10 04:43:40;;;;;;;4.28;2.58;;;9.10;99.90;;;;;;2047600;29;20035;-75
2022/11/10 04:45:00;;;;;;;6.30;3.05;;;9.20;99.90;;;;;;2048298;29;20568;-76
2022/11/10 04:46:37;;;;;;;4.55;2.92;;;9.20;99.90;;;;;;2047999;29;20035;-76
2022/11/10 04:47:56;;;;;;;5.82;2.88;;;9.20;99.90;;;;;;2048434;29;20066;-77
2022/11/10 04:49:15;;;;;;;3.25;2.75;;;9.20;99.90;;;;;;2048050;29;20058;-77
2022/11/10 04:50:34;;;;;;;5.53;2.90;;;9.20;99.90;;;;;;2048080;29;20043;-76
2022/11/10 04:51:53;;;;;;;4.90;2.65;;;9.10;99.90;;;;;;2048247;29;20060;-76
2022/11/10 04:53:12;;;;;;;5.15;2.80;;;9.10;99.90;;;;;;2047973;29;20410;-76
2022/11/10 04:54:32;;;;;;;4.63;3.20;;;9.20;99.90;;;;;;2047706;29;20035;-77
2022/11/10 04:55:52;;;;;;;5.28;3.20;;;9.20;99.90;;;;;;2047734;29;20031;-76
2022/11/10 04:57:12;;;;;;;6.22;3.35;;;9.20;99.90;;;;;;2047878;29;20031;-77
2022/11/10 04:58:31;;;;;;;5.00;3.13;;;9.20;99.90;;;;;;2047843;29;20494;-76
2022/11/10 04:59:50;;;;;;;5.28;2.97;;;9.20;99.90;;;;;;2048013;29;20106;-77
2022/11/10 05:01:16;;;;;;;3.63;2.90;;;9.20;99.90;;;;;;2047567;29;20102;-77
2022/11/10 05:02:35;;;;;;;4.95;2.80;;;9.30;99.90;;;;;;2047900;29;20031;-76
2022/11/10 05:03:54;;;;;;;7.30;3.03;;;9.30;99.90;;;;;;2047565;28;20549;-76
2022/11/10 05:05:14;;;;;;;4.95;2.95;;;9.30;99.90;;;;;;2047726;29;20505;-76
2022/11/10 05:06:33;;;;;;;5.43;3.00;;;9.40;99.90;;;;;;2047762;29;20070;-75
2022/11/10 05:07:52;;;;;;;5.13;2.92;;;9.40;99.90;;;;;;2048001;29;20027;-75
2022/11/10 05:09:12;;;;;;;6.38;2.90;;;9.40;99.90;;;;;;2047911;29;20442;-77
2022/11/10 05:10:31;;;;;;;5.18;3.00;;;9.50;99.90;;;;;;2046963;29;20031;-75
2022/11/10 05:11:51;;;;;;;5.45;2.60;;;9.50;99.90;;;;;;2047427;29;20035;-75
2022/11/10 05:13:10;;;;;;;6.28;2.90;;;9.50;99.90;;;;;;2047842;29;20043;-76
2022/11/10 05:14:29;;;;;;;5.82;2.80;;;9.60;99.90;;;;;;2047860;29;20027;-76
2022/11/10 05:15:48;;;;;;;4.95;2.80;;;9.60;99.90;;;;;;2047759;29;20047;-76
2022/11/10 05:17:07;;;;;;;7.22;2.97;;;9.60;99.90;;;;;;2047772;29;20031;-75
2022/11/10 05:18:27;;;;;;;6.05;3.10;;;9.70;99.90;;;;;;2047640;29;20035;-75
2022/11/10 05:19:46;;;;;;;5.90;3.00;;;9.70;99.90;;;;;;2047750;29;20031;-76
2022/11/10 05:21:06;;;;;;;5.30;3.05;;;9.70;99.90;;;;;;2047773;29;20118;-76
2022/11/10 05:22:25;;;;;;;5.90;2.90;;;9.80;99.90;;;;;;2047403;29;20512;-77
2022/11/10 05:23:45;;;;;;;6.43;2.85;;;9.80;99.90;;;;;;2047375;29;20078;-75
2022/11/10 05:25:04;;;;;;;5.63;2.70;;;9.80;99.90;;;;;;2048091;29;20035;-77
2022/11/10 05:26:23;;;;;;;10.38;2.95;;;9.90;99.90;;;;;;2048106;29;20493;-77
2022/11/10 05:27:42;;;;;;;4.20;2.67;;;9.90;99.90;;;;;;2048080;29;20035;-76
2022/11/10 05:29:02;;;;;;;6.75;2.85;;;9.90;99.90;;;;;;2046705;29;20039;-76
2022/11/10 05:30:21;;;;;;;3.75;2.42;;;10.00;99.90;;;;;;2047701;29;20027;-76
2022/11/10 05:31:40;;;;;;;6.95;2.70;;;10.00;99.90;;;;;;2047364;29;20043;-76
2022/11/10 05:32:59;;;;;;;6.90;2.80;;;10.00;99.90;;;;;;2047471;29;20027;-76
2022/11/10 05:34:19;;;;;;;4.80;2.47;;;10.00;99.90;;;;;;2047589;29;20129;-77
2022/11/10 05:35:38;;;;;;;6.88;2.65;;;10.00;99.90;;;;;;2048183;29;20457;-76
2022/11/10 05:36:58;;;;;;;5.28;2.72;;;10.10;99.90;;;;;;2047258;29;20043;-77
2022/11/10 05:38:17;;;;;;;5.70;2.60;;;10.10;99.90;;;;;;2047911;29;20027;-76
2022/11/10 05:39:36;;;;;;;8.50;2.92;;;10.10;99.90;;;;;;2047894;29;20050;-76
2022/11/10 05:40:55;;;;;;;6.40;2.65;;;10.10;99.90;;;;;;2047851;29;20043;-76
2022/11/10 05:42:14;;;;;;;5.57;2.72;;;10.10;99.90;;;;;;2047299;29;20114;-76
2022/11/10 05:43:34;;;;;;;4.28;2.58;;;10.10;99.90;;;;;;2046955;29;20067;-76
2022/11/10 05:44:53;;;;;;;4.75;2.42;;;10.10;99.90;;;;;;2047656;29;20050;-77
2022/11/10 05:46:12;;;;;;;2.65;2.22;;;10.10;99.90;;;;;;2047887;29;20119;-76
2022/11/10 05:47:31;;;;;;;3.80;2.38;;;10.00;99.90;;;;;;2047947;29;20485;-76
2022/11/10 05:48:50;;;;;;;4.03;2.47;;;10.00;99.90;;;;;;2047835;29;20046;-76
2022/11/10 05:50:10;;;;;;;2.88;2.30;;;9.90;99.90;;;;;;2047977;29;20565;-76
2022/11/10 05:51:29;;;;;;;4.07;2.60;;;9.80;99.90;;;;;;2048304;29;20728;-78
2022/11/10 05:52:51;;;;;;;5.95;2.92;;;9.80;99.90;;;;;;2047729;29;20114;-77
2022/11/10 05:54:10;;;;;;;4.65;2.85;;;9.70;99.90;;;;;;2048439;29;20142;-76
2022/11/10 05:55:30;;;;;;;5.68;2.95;;;9.70;99.90;;;;;;2048695;29;20027;-76
2022/11/10 05:56:49;;;;;;;4.45;3.00;;;9.60;99.90;;;;;;2049723;29;20043;-76
2022/11/10 05:58:08;;;;;;;5.97;2.95;;;9.60;99.90;;;;;;2049175;29;20110;-76
2022/11/10 05:59:27;;;;;;;4.45;2.75;;;9.50;99.90;;;;;;2048317;29;20043;-76
2022/11/10 06:00:46;;;;;;;5.85;2.78;;;9.50;99.90;;;;;;2048668;29;20478;-76
2022/11/10 06:02:06;;;;;;;4.68;2.72;;;9.60;99.90;;;;;;2047593;29;20530;-76
2022/11/10 06:03:25;;;;;;;3.60;2.63;;;9.60;99.90;;;;;;2048613;29;20039;-76
2022/11/10 06:04:44;;;;;;;3.83;2.50;;;9.50;99.90;;;;;;2047838;29;20039;-76
2022/11/10 06:06:04;;;;;;;7.05;3.00;;;9.50;99.90;;;;;;2047866;29;20031;-77
2022/11/10 06:07:23;;;;;;;4.80;2.80;;;9.50;99.90;;;;;;2047999;29;20498;-77
2022/11/10 06:08:42;;;;;;;4.30;3.00;;;9.50;99.90;;;;;;2047477;29;20043;-77
2022/11/10 06:10:01;;;;;;;4.70;2.90;;;9.50;99.90;;;;;;2047722;29;20032;-77
2022/11/10 06:11:21;;;;;;;4.28;2.70;;;9.50;99.90;;;;;;2048382;29;20106;-76
2022/11/10 06:12:40;;;;;;;4.75;2.97;;;9.40;99.90;;;;;;2048004;29;20498;-77
2022/11/10 06:13:59;;;;;;;4.60;2.80;;;9.40;99.90;;;;;;2047382;29;20042;-76
2022/11/10 06:15:19;;;;;;;5.75;3.20;;;9.40;99.90;;;;;;2047656;28;20035;-77
2022/11/10 06:16:39;;;;;;;6.22;3.03;;;9.40;99.90;;;;;;2048835;29;20043;-75
2022/11/10 06:17:58;;;;;;;4.38;3.00;;;9.40;99.90;;;;;;2048700;29;20031;-77
2022/11/10 06:19:17;;;;;;;8.05;3.78;;;9.30;99.90;;;;;;2049257;29;20039;-77
2022/11/10 06:20:36;;;;;;;8.00;4.20;;;9.30;99.90;;;;;;2050409;29;20625;-77
2022/11/10 06:21:56;;;;;;;8.23;4.10;;;9.30;99.90;;;;;;2049633;29;20493;-76
2022/11/10 06:23:15;;;;;;;7.18;3.60;;;9.30;99.90;;;;;;2049582;29;20031;-77
2022/11/10 06:24:34;;;;;;;6.15;3.78;;;9.30;99.90;;;;;;2049180;29;20043;-72
2022/11/10 06:25:53;;;;;;;7.75;3.78;;;9.30;99.90;;;;;;2049127;29;20723;-72
2022/11/10 06:27:12;;;;;;;7.13;4.15;;;9.40;99.90;;;;;;2048976;29;20039;-74
2022/11/10 06:28:31;;;;;;;11.15;5.30;;;9.40;99.90;;;;;;2049682;29;20039;-73
2022/11/10 06:29:50;;;;;;;10.50;5.53;;;9.30;99.90;;;;;;2049608;29;20082;-77
2022/11/10 06:31:10;;;;;;;10.25;5.18;;;9.30;99.90;;;;;;2050039;29;20035;-74
2022/11/10 06:32:29;;;;;;;10.93;5.00;;;9.30;99.90;;;;;;2056242;28;20043;-75
2022/11/10 06:33:48;;;;;;;9.13;4.75;;;9.30;99.90;;;;;;2056132;28;20038;-74
2022/11/10 06:35:07;;;;;;;8.77;4.57;;;9.30;99.90;;;;;;2056589;28;20035;-75
2022/11/10 06:36:26;;;;;;;9.93;4.20;;;9.30;99.90;;;;;;2056842;28;20050;-75
2022/11/10 06:37:54;;;;;;;7.38;4.15;;;9.40;99.90;;;;;;2056749;28;20034;-75
2022/11/10 06:39:14;;;;;;;6.07;3.85;;;9.40;99.90;;;;;;2056376;28;20043;-73
2022/11/10 06:40:33;;;;;;;8.13;4.03;;;9.50;99.90;;;;;;2049108;29;20035;-77
2022/11/10 06:41:52;;;;;;;8.93;4.28;;;9.50;99.90;;;;;;2048532;29;20067;-72
2022/11/10 06:43:11;;;;;;;12.45;5.50;;;9.60;99.90;;;;;;2048620;29;20039;-71
2022/11/10 06:44:31;;;;;;;15.45;6.65;;;9.60;99.90;;;;;;2047845;29;20482;-72
2022/11/10 06:45:50;;;;;;;15.50;6.57;;;9.70;99.90;;;;;;2048925;29;20031;-73
2022/11/10 06:47:09;;;;;;;13.75;5.85;;;9.70;99.90;;;;;;2048785;29;20114;-74
2022/11/10 06:48:28;;;;;;;13.32;5.53;;;9.70;99.90;;;;;;2048728;29;20035;-72
2022/11/10 06:49:47;;;;;;;10.02;4.72;;;9.70;99.90;;;;;;2048671;29;20043;-72
2022/11/10 06:51:06;;;;;;;8.50;4.60;;;9.80;99.90;;;;;;2048660;29;20102;-76
2022/11/10 06:52:25;;;;;;;7.47;4.07;;;9.80;99.90;;;;;;2048625;29;20055;-75
2022/11/10 06:53:44;;;;;;;7.60;4.20;;;9.90;99.90;;;;;;2048493;29;20035;-77
2022/11/10 06:55:04;;;;;;;7.88;4.05;;;9.90;99.90;;;;;;2049058;29;20047;-74
2022/11/10 06:56:23;;;;;;;6.53;3.83;;;9.90;99.90;;;;;;2048661;29;20035;-73
2022/11/10 06:57:42;;;;;;;7.50;3.97;;;10.00;99.90;;;;;;2048770;29;20564;-73
2022/11/10 06:59:02;;;;;;;8.30;3.90;;;10.00;99.90;;;;;;2056401;28;20034;-74
2022/11/10 07:00:21;;;;;;;6.95;3.40;;;10.00;99.90;;;;;;2056020;28;20042;-73
2022/11/10 07:01:40;;;;;;;6.22;3.47;;;10.10;99.90;;;;;;2056084;28;20034;-73
2022/11/10 07:03:05;;;;;;;7.90;3.70;;;10.10;99.90;;;;;;2056508;28;20421;-72
2022/11/10 07:04:24;;;;;;;6.50;3.60;;;10.20;99.90;;;;;;2056552;28;20034;-77
2022/11/10 07:05:43;;;;;;;7.32;3.35;;;10.20;99.90;;;;;;2056828;28;20031;-72
2022/11/10 07:07:03;;;;;;;5.47;3.05;;;10.20;99.90;;;;;;2056697;28;20038;-72
2022/11/10 07:08:22;;;;;;;5.90;3.00;;;10.30;99.90;;;;;;2056630;28;20038;-73
2022/11/10 07:09:41;;;;;;;7.05;3.20;;;10.30;99.90;;;;;;2056879;28;20802;-74
2022/11/10 07:11:00;;;;;;;5.13;2.83;;;10.30;99.90;;;;;;2056991;28;20516;-75
2022/11/10 07:12:19;;;;;;;5.13;3.00;;;10.40;99.90;;;;;;2056938;28;20038;-75